PLF105 LEIB-EPKK
Flight info
| Callsign | PLF105 |
|---|---|
| Flight time | N/A |
| Altitude | 38000 |
| Route | KABRE DCT ELTAN DCT ISTER DCT NIVDA DCT OMEDA DCT RAPUR DCT TORTU DCT ERTEV DCT KALMO DCT MALUG/N0459F390 DCT INGID DCT GAMLI DCT STO DCT LEDVA DCT NETIR |
| Aircraft | B738/M-SDE2E3FGHIRWXY/LB1 |
Departure
| Time | N/A |
|---|---|
| Airport | Ibiza Airport (LEIB) |
Arrival
| Time | 2026-05-01 09:38 |
|---|---|
| Airport | Kraków John Paul II International Airport (EPKK) |
| Time | Latitude | Longitude | Altitude | Speed | Heading |
|---|---|---|---|---|---|
| 2026-05-01 07:23 | 40.26098 | 4.97543 | 38168 ft | 479 kts | 47° |
| 2026-05-01 07:24 | 40.32481 | 5.07645 | 38173 ft | 480 kts | 47° |
| 2026-05-01 07:24 | 40.36739 | 5.14407 | 38178 ft | 481 kts | 47° |
| 2026-05-01 07:25 | 40.41007 | 5.21200 | 38177 ft | 483 kts | 47° |
| 2026-05-01 07:25 | 40.45251 | 5.27971 | 38177 ft | 484 kts | 47° |
| 2026-05-01 07:26 | 40.49534 | 5.34819 | 38178 ft | 485 kts | 47° |
| 2026-05-01 07:26 | 40.53825 | 5.41696 | 38184 ft | 486 kts | 47° |
| 2026-05-01 07:27 | 40.58081 | 5.48531 | 38187 ft | 486 kts | 47° |
| 2026-05-01 07:27 | 40.62364 | 5.55425 | 38190 ft | 487 kts | 47° |
| 2026-05-01 07:28 | 40.66652 | 5.62343 | 38194 ft | 486 kts | 48° |
| 2026-05-01 07:28 | 40.70924 | 5.69252 | 38203 ft | 486 kts | 47° |
| 2026-05-01 07:29 | 40.75193 | 5.76170 | 38205 ft | 486 kts | 48° |
| 2026-05-01 07:29 | 40.79448 | 5.83081 | 38211 ft | 485 kts | 48° |
| 2026-05-01 07:30 | 40.83694 | 5.89993 | 38211 ft | 484 kts | 47° |
| 2026-05-01 07:30 | 40.87929 | 5.96902 | 38214 ft | 484 kts | 47° |
| 2026-05-01 07:31 | 40.92157 | 6.03816 | 38220 ft | 483 kts | 47° |
| 2026-05-01 07:32 | 41.02684 | 6.21097 | 38220 ft | 482 kts | 47° |
| 2026-05-01 07:33 | 41.08955 | 6.31440 | 38232 ft | 481 kts | 47° |
| 2026-05-01 07:33 | 41.15208 | 6.41787 | 38235 ft | 480 kts | 47° |
| 2026-05-01 07:34 | 41.21468 | 6.52181 | 38233 ft | 480 kts | 47° |
| 2026-05-01 07:35 | 41.25639 | 6.59101 | 38235 ft | 479 kts | 46° |
| 2026-05-01 07:35 | 41.29885 | 6.65935 | 38231 ft | 479 kts | 45° |
| 2026-05-01 07:36 | 41.34153 | 6.72754 | 38228 ft | 479 kts | 45° |
| 2026-05-01 07:36 | 41.38405 | 6.79586 | 38227 ft | 479 kts | 45° |
| 2026-05-01 07:37 | 41.44742 | 6.89833 | 38231 ft | 479 kts | 45° |
| 2026-05-01 07:37 | 41.48977 | 6.96706 | 38229 ft | 479 kts | 45° |
| 2026-05-01 07:38 | 41.53206 | 7.03583 | 38236 ft | 479 kts | 45° |
| 2026-05-01 07:39 | 41.59534 | 7.13901 | 38235 ft | 479 kts | 45° |
| 2026-05-01 07:39 | 41.65871 | 7.24270 | 38243 ft | 479 kts | 45° |
| 2026-05-01 07:40 | 41.70086 | 7.31187 | 38239 ft | 479 kts | 45° |
| 2026-05-01 07:40 | 41.74294 | 7.38109 | 38241 ft | 479 kts | 45° |
| 2026-05-01 07:41 | 41.78469 | 7.44991 | 38241 ft | 479 kts | 45° |
| 2026-05-01 07:42 | 41.84763 | 7.55397 | 38241 ft | 478 kts | 45° |
| 2026-05-01 07:42 | 41.88948 | 7.62335 | 38234 ft | 478 kts | 44° |
| 2026-05-01 07:43 | 41.93127 | 7.69280 | 38244 ft | 478 kts | 44° |
| 2026-05-01 07:43 | 41.99378 | 7.79699 | 38251 ft | 477 kts | 44° |
| 2026-05-01 07:44 | 42.07691 | 7.93609 | 38249 ft | 476 kts | 44° |
| 2026-05-01 07:45 | 42.11836 | 8.00570 | 38249 ft | 476 kts | 44° |
| 2026-05-01 07:45 | 42.15958 | 8.07508 | 38243 ft | 476 kts | 44° |
| 2026-05-01 07:46 | 42.20094 | 8.14486 | 38242 ft | 476 kts | 45° |
| 2026-05-01 07:47 | 42.26298 | 8.24985 | 38233 ft | 476 kts | 45° |
| 2026-05-01 07:47 | 42.30461 | 8.31953 | 38230 ft | 473 kts | 40° |
| 2026-05-01 07:48 | 42.38237 | 8.39328 | 38234 ft | 445 kts | 14° |
| 2026-05-01 07:48 | 42.43973 | 8.42443 | 38239 ft | 444 kts | 14° |
| 2026-05-01 07:49 | 42.52554 | 8.47113 | 38227 ft | 445 kts | 15° |
| 2026-05-01 07:50 | 42.58286 | 8.50299 | 38247 ft | 444 kts | 15° |
| 2026-05-01 07:50 | 42.66867 | 8.55096 | 38243 ft | 444 kts | 15° |
| 2026-05-01 07:51 | 42.72585 | 8.58300 | 38233 ft | 444 kts | 15° |
| 2026-05-01 07:52 | 42.81114 | 8.63089 | 38247 ft | 443 kts | 15° |
| 2026-05-01 07:52 | 42.86815 | 8.66297 | 38248 ft | 443 kts | 16° |
| 2026-05-01 07:53 | 42.95355 | 8.71109 | 38248 ft | 442 kts | 16° |
| 2026-05-01 07:53 | 43.01039 | 8.74317 | 38259 ft | 441 kts | 16° |
| 2026-05-01 07:55 | 43.15183 | 8.82328 | 38271 ft | 440 kts | 16° |
| 2026-05-01 07:56 | 43.28362 | 8.89831 | 38297 ft | 439 kts | 17° |
| 2026-05-01 07:57 | 43.36848 | 8.94589 | 38287 ft | 436 kts | 11° |
| 2026-05-01 07:57 | 43.42708 | 8.95936 | 38296 ft | 422 kts | 355° |
| 2026-05-01 07:58 | 43.48576 | 8.95854 | 38304 ft | 422 kts | 354° |
| 2026-05-01 07:59 | 43.60346 | 8.95898 | 38295 ft | 426 kts | 1° |
| 2026-05-01 07:59 | 43.66130 | 8.98101 | 38302 ft | 439 kts | 19° |
| 2026-05-01 08:00 | 43.76525 | 9.07382 | 38314 ft | 447 kts | 28° |
| 2026-05-01 08:01 | 43.86833 | 9.17018 | 38314 ft | 446 kts | 28° |
| 2026-05-01 08:02 | 43.94569 | 9.24186 | 38313 ft | 445 kts | 28° |
| 2026-05-01 08:03 | 44.02279 | 9.31353 | 38321 ft | 444 kts | 28° |
| 2026-05-01 08:03 | 44.09945 | 9.38505 | 38319 ft | 441 kts | 28° |
| 2026-05-01 08:04 | 44.20060 | 9.47977 | 38330 ft | 438 kts | 29° |
| 2026-05-01 08:05 | 44.27635 | 9.55096 | 38336 ft | 437 kts | 28° |
| 2026-05-01 08:06 | 44.35023 | 9.62561 | 38336 ft | 441 kts | 34° |
| 2026-05-01 08:07 | 44.44337 | 9.73811 | 38335 ft | 442 kts | 35° |
| 2026-05-01 08:08 | 44.51333 | 9.82240 | 38357 ft | 442 kts | 35° |
| 2026-05-01 08:09 | 44.60655 | 9.93445 | 38364 ft | 441 kts | 36° |
| 2026-05-01 08:09 | 44.65278 | 9.99020 | 38379 ft | 440 kts | 36° |
| 2026-05-01 08:10 | 44.74570 | 10.10262 | 38384 ft | 439 kts | 36° |
| 2026-05-01 08:11 | 44.83787 | 10.21465 | 38394 ft | 438 kts | 36° |
| 2026-05-01 08:12 | 44.90700 | 10.29898 | 38400 ft | 437 kts | 37° |
| 2026-05-01 08:13 | 44.97581 | 10.38320 | 38395 ft | 436 kts | 37° |
| 2026-05-01 08:13 | 45.04440 | 10.46743 | 38397 ft | 435 kts | 37° |
| 2026-05-01 08:14 | 45.09001 | 10.52360 | 38396 ft | 434 kts | 37° |
| 2026-05-01 08:14 | 45.13526 | 10.57943 | 38395 ft | 434 kts | 37° |
| 2026-05-01 08:15 | 45.20345 | 10.66383 | 38411 ft | 433 kts | 38° |
| 2026-05-01 08:16 | 45.24876 | 10.72005 | 38402 ft | 433 kts | 38° |
| 2026-05-01 08:16 | 45.29403 | 10.77636 | 38412 ft | 432 kts | 38° |
| 2026-05-01 08:17 | 45.33928 | 10.83275 | 38399 ft | 432 kts | 38° |
| 2026-05-01 08:17 | 45.38415 | 10.88880 | 38410 ft | 432 kts | 38° |
| 2026-05-01 08:18 | 45.42924 | 10.94526 | 38400 ft | 432 kts | 38° |
| 2026-05-01 08:19 | 45.51953 | 11.05867 | 38398 ft | 432 kts | 38° |
| 2026-05-01 08:19 | 45.56428 | 11.11506 | 38394 ft | 432 kts | 38° |
| 2026-05-01 08:20 | 45.60932 | 11.17196 | 38397 ft | 432 kts | 38° |
| 2026-05-01 08:20 | 45.65426 | 11.22885 | 38381 ft | 432 kts | 39° |
| 2026-05-01 08:21 | 45.69924 | 11.28591 | 38380 ft | 431 kts | 39° |
| 2026-05-01 08:21 | 45.74413 | 11.34300 | 38377 ft | 431 kts | 39° |
| 2026-05-01 08:22 | 45.78890 | 11.40006 | 38386 ft | 431 kts | 39° |
| 2026-05-01 08:22 | 45.83366 | 11.45722 | 38384 ft | 430 kts | 39° |
| 2026-05-01 08:23 | 45.87810 | 11.51412 | 38373 ft | 430 kts | 39° |
| 2026-05-01 08:23 | 45.92275 | 11.57141 | 38378 ft | 430 kts | 39° |
| 2026-05-01 08:24 | 45.96733 | 11.62873 | 38380 ft | 430 kts | 39° |
| 2026-05-01 08:24 | 46.01187 | 11.68615 | 38385 ft | 430 kts | 39° |
| 2026-05-01 08:25 | 46.05638 | 11.74364 | 38419 ft | 431 kts | 40° |
| 2026-05-01 08:25 | 46.07868 | 11.77249 | 38563 ft | 431 kts | 40° |
| 2026-05-01 08:25 | 46.10071 | 11.80103 | 38722 ft | 431 kts | 40° |
| 2026-05-01 08:25 | 46.12299 | 11.82992 | 38879 ft | 431 kts | 40° |
| 2026-05-01 08:26 | 46.14536 | 11.85896 | 38983 ft | 433 kts | 40° |
| 2026-05-01 08:26 | 46.19024 | 11.91733 | 39215 ft | 434 kts | 40° |
| 2026-05-01 08:26 | 46.21269 | 11.94659 | 39345 ft | 435 kts | 40° |
| 2026-05-01 08:27 | 46.23521 | 11.97596 | 39372 ft | 437 kts | 40° |
| 2026-05-01 08:27 | 46.28012 | 12.03464 | 39380 ft | 436 kts | 40° |
| 2026-05-01 08:28 | 46.32523 | 12.09373 | 39374 ft | 433 kts | 40° |
| 2026-05-01 08:28 | 46.36941 | 12.15174 | 39381 ft | 430 kts | 40° |
| 2026-05-01 08:29 | 46.41360 | 12.20987 | 39384 ft | 428 kts | 40° |
| 2026-05-01 08:29 | 46.45769 | 12.26800 | 39378 ft | 427 kts | 40° |
| 2026-05-01 08:30 | 46.50164 | 12.32609 | 39384 ft | 427 kts | 40° |
| 2026-05-01 08:30 | 46.54559 | 12.38431 | 39403 ft | 428 kts | 40° |
| 2026-05-01 08:31 | 46.58962 | 12.44278 | 39390 ft | 429 kts | 40° |
| 2026-05-01 08:31 | 46.63339 | 12.50104 | 39388 ft | 429 kts | 40° |
| 2026-05-01 08:32 | 46.67747 | 12.55982 | 39395 ft | 429 kts | 40° |
| 2026-05-01 08:32 | 46.71952 | 12.62161 | 39388 ft | 431 kts | 49° |
| 2026-05-01 08:33 | 46.75592 | 12.69098 | 39396 ft | 430 kts | 50° |
| 2026-05-01 08:33 | 46.79194 | 12.76060 | 39400 ft | 430 kts | 50° |
| 2026-05-01 08:34 | 46.82809 | 12.83001 | 39391 ft | 428 kts | 50° |
| 2026-05-01 08:34 | 46.86393 | 12.89862 | 39401 ft | 427 kts | 50° |
| 2026-05-01 08:35 | 46.89986 | 12.96745 | 39396 ft | 425 kts | 50° |
| 2026-05-01 08:35 | 46.93567 | 13.03623 | 39389 ft | 424 kts | 50° |
| 2026-05-01 08:36 | 46.97139 | 13.10501 | 39388 ft | 423 kts | 50° |
| 2026-05-01 08:36 | 47.00673 | 13.17323 | 39402 ft | 423 kts | 50° |
| 2026-05-01 08:37 | 47.04223 | 13.24195 | 39406 ft | 421 kts | 50° |
| 2026-05-01 08:37 | 47.07759 | 13.31056 | 39423 ft | 421 kts | 50° |
| 2026-05-01 08:38 | 47.11271 | 13.37888 | 39425 ft | 422 kts | 50° |
| 2026-05-01 08:38 | 47.14818 | 13.44804 | 39412 ft | 423 kts | 51° |
| 2026-05-01 08:39 | 47.18366 | 13.51740 | 39410 ft | 424 kts | 51° |
| 2026-05-01 08:39 | 47.21904 | 13.58675 | 39408 ft | 424 kts | 51° |
| 2026-05-01 08:40 | 47.27186 | 13.69011 | 39408 ft | 422 kts | 49° |
| 2026-05-01 08:40 | 47.30992 | 13.75558 | 39417 ft | 420 kts | 46° |
| 2026-05-01 08:41 | 47.34871 | 13.82002 | 39422 ft | 419 kts | 46° |
| 2026-05-01 08:41 | 47.38726 | 13.88456 | 39426 ft | 419 kts | 47° |
| 2026-05-01 08:42 | 47.42559 | 13.94932 | 39429 ft | 418 kts | 47° |
| 2026-05-01 08:42 | 47.45728 | 14.00314 | 39423 ft | 418 kts | 47° |
| 2026-05-01 08:43 | 47.50160 | 14.07861 | 39428 ft | 417 kts | 47° |
| 2026-05-01 08:43 | 47.53320 | 14.13256 | 39428 ft | 417 kts | 47° |
| 2026-05-01 08:44 | 47.57114 | 14.19746 | 39430 ft | 416 kts | 47° |
| 2026-05-01 08:44 | 47.60902 | 14.26243 | 39440 ft | 416 kts | 47° |
| 2026-05-01 08:45 | 47.64684 | 14.32743 | 39433 ft | 416 kts | 47° |
| 2026-05-01 08:45 | 47.68470 | 14.39266 | 39443 ft | 417 kts | 47° |
| 2026-05-01 08:46 | 47.72247 | 14.45791 | 39433 ft | 417 kts | 47° |
| 2026-05-01 08:46 | 47.76000 | 14.52290 | 39438 ft | 417 kts | 48° |
| 2026-05-01 08:47 | 47.79776 | 14.58844 | 39439 ft | 417 kts | 47° |
| 2026-05-01 08:47 | 47.83552 | 14.65415 | 39435 ft | 418 kts | 48° |
| 2026-05-01 08:48 | 47.87334 | 14.72011 | 39429 ft | 419 kts | 48° |
| 2026-05-01 08:48 | 47.91065 | 14.78690 | 39424 ft | 421 kts | 53° |
| 2026-05-01 08:49 | 47.94207 | 14.86076 | 39424 ft | 423 kts | 56° |
| 2026-05-01 08:49 | 47.97294 | 14.93545 | 39422 ft | 423 kts | 56° |
| 2026-05-01 08:50 | 48.00400 | 15.01033 | 39423 ft | 424 kts | 56° |
| 2026-05-01 08:50 | 48.03487 | 15.08454 | 39424 ft | 422 kts | 56° |
| 2026-05-01 08:51 | 48.06580 | 15.15898 | 39415 ft | 420 kts | 56° |
| 2026-05-01 08:51 | 48.09651 | 15.23310 | 39420 ft | 418 kts | 56° |
| 2026-05-01 08:52 | 48.12707 | 15.30703 | 39421 ft | 417 kts | 56° |
| 2026-05-01 08:52 | 48.15758 | 15.38106 | 39424 ft | 417 kts | 56° |
| 2026-05-01 08:53 | 48.18785 | 15.45470 | 39427 ft | 417 kts | 56° |
| 2026-05-01 08:53 | 48.21826 | 15.52890 | 39421 ft | 418 kts | 56° |
| 2026-05-01 08:54 | 48.24867 | 15.60331 | 39422 ft | 419 kts | 56° |
| 2026-05-01 08:54 | 48.27912 | 15.67802 | 39426 ft | 420 kts | 56° |
| 2026-05-01 08:55 | 48.30963 | 15.75309 | 39421 ft | 421 kts | 56° |
| 2026-05-01 08:55 | 48.34016 | 15.82842 | 39424 ft | 422 kts | 56° |
| 2026-05-01 08:56 | 48.37048 | 15.90345 | 39423 ft | 422 kts | 57° |
| 2026-05-01 08:56 | 48.40095 | 15.97904 | 39424 ft | 423 kts | 57° |
| 2026-05-01 08:57 | 48.43149 | 16.05466 | 39423 ft | 423 kts | 56° |
| 2026-05-01 08:57 | 48.46244 | 16.13005 | 39425 ft | 423 kts | 56° |
| 2026-05-01 08:58 | 48.49339 | 16.20550 | 39419 ft | 423 kts | 56° |
| 2026-05-01 08:58 | 48.52421 | 16.28104 | 39423 ft | 422 kts | 56° |
| 2026-05-01 08:59 | 48.55475 | 16.35614 | 39421 ft | 422 kts | 56° |
| 2026-05-01 08:59 | 48.58534 | 16.43164 | 39420 ft | 421 kts | 56° |
| 2026-05-01 09:00 | 48.61587 | 16.50718 | 39421 ft | 420 kts | 56° |
| 2026-05-01 09:00 | 48.64622 | 16.58249 | 39420 ft | 419 kts | 56° |
| 2026-05-01 09:01 | 48.67651 | 16.65786 | 39412 ft | 418 kts | 56° |
| 2026-05-01 09:01 | 48.70667 | 16.73310 | 39414 ft | 417 kts | 57° |
| 2026-05-01 09:02 | 48.73754 | 16.80663 | 39410 ft | 415 kts | 51° |
| 2026-05-01 09:02 | 48.77325 | 16.87527 | 39409 ft | 414 kts | 50° |
| 2026-05-01 09:03 | 48.80913 | 16.94358 | 39413 ft | 413 kts | 50° |
| 2026-05-01 09:03 | 48.84481 | 17.01205 | 39415 ft | 413 kts | 50° |
| 2026-05-01 09:04 | 48.88036 | 17.08077 | 39413 ft | 413 kts | 50° |
| 2026-05-01 09:04 | 48.91555 | 17.14908 | 39419 ft | 412 kts | 50° |
| 2026-05-01 09:05 | 48.95088 | 17.21786 | 39421 ft | 412 kts | 50° |
| 2026-05-01 09:05 | 48.98615 | 17.28668 | 39422 ft | 412 kts | 50° |
| 2026-05-01 09:06 | 49.02140 | 17.35565 | 39423 ft | 412 kts | 50° |
| 2026-05-01 09:06 | 49.05656 | 17.42459 | 39432 ft | 412 kts | 50° |
| 2026-05-01 09:07 | 49.09150 | 17.49331 | 39435 ft | 411 kts | 50° |
| 2026-05-01 09:07 | 49.12653 | 17.56236 | 39424 ft | 411 kts | 51° |
| 2026-05-01 09:08 | 49.16155 | 17.63160 | 39425 ft | 411 kts | 51° |
| 2026-05-01 09:08 | 49.19647 | 17.70079 | 39424 ft | 410 kts | 51° |
| 2026-05-01 09:09 | 49.23131 | 17.77002 | 39424 ft | 410 kts | 51° |
| 2026-05-01 09:09 | 49.26576 | 17.83865 | 39413 ft | 409 kts | 51° |
| 2026-05-01 09:10 | 49.30040 | 17.90783 | 39414 ft | 408 kts | 51° |
| 2026-05-01 09:10 | 49.33492 | 17.97698 | 39411 ft | 408 kts | 51° |
| 2026-05-01 09:11 | 49.36921 | 18.04580 | 39400 ft | 407 kts | 51° |
| 2026-05-01 09:11 | 49.40353 | 18.11490 | 39364 ft | 407 kts | 51° |
| 2026-05-01 09:12 | 49.42085 | 18.14981 | 38833 ft | 410 kts | 51° |
| 2026-05-01 09:12 | 49.43795 | 18.18435 | 38352 ft | 403 kts | 51° |
| 2026-05-01 09:12 | 49.45490 | 18.21864 | 37638 ft | 402 kts | 51° |
| 2026-05-01 09:12 | 49.47168 | 18.25263 | 37155 ft | 395 kts | 51° |
| 2026-05-01 09:13 | 49.48831 | 18.28634 | 36357 ft | 395 kts | 51° |
| 2026-05-01 09:13 | 49.50472 | 18.31967 | 35782 ft | 388 kts | 51° |
| 2026-05-01 09:13 | 49.52114 | 18.35301 | 34801 ft | 393 kts | 51° |
| 2026-05-01 09:13 | 49.53757 | 18.38644 | 34116 ft | 389 kts | 51° |
| 2026-05-01 09:14 | 49.55384 | 18.41960 | 33360 ft | 386 kts | 51° |
| 2026-05-01 09:14 | 49.56979 | 18.45214 | 32560 ft | 384 kts | 51° |
| 2026-05-01 09:14 | 49.58589 | 18.48502 | 31706 ft | 385 kts | 51° |
| 2026-05-01 09:14 | 49.60200 | 18.51796 | 30834 ft | 385 kts | 51° |
| 2026-05-01 09:15 | 49.61814 | 18.55101 | 29908 ft | 386 kts | 52° |
| 2026-05-01 09:15 | 49.63430 | 18.58414 | 28956 ft | 386 kts | 52° |
| 2026-05-01 09:15 | 49.65049 | 18.61736 | 27936 ft | 388 kts | 52° |
| 2026-05-01 09:15 | 49.66679 | 18.65086 | 26892 ft | 390 kts | 52° |
| 2026-05-01 09:16 | 49.68473 | 18.68208 | 25974 ft | 388 kts | 41° |
| 2026-05-01 09:16 | 49.70664 | 18.70633 | 25099 ft | 387 kts | 33° |
| 2026-05-01 09:16 | 49.73134 | 18.72346 | 24196 ft | 391 kts | 21° |
| 2026-05-01 09:17 | 49.78367 | 18.74250 | 22632 ft | 385 kts | 17° |
| 2026-05-01 09:17 | 49.80969 | 18.75172 | 21857 ft | 381 kts | 17° |
| 2026-05-01 09:17 | 49.85987 | 18.77515 | 20477 ft | 368 kts | 32° |
| 2026-05-01 09:18 | 49.87932 | 18.79879 | 20354 ft | 348 kts | 45° |
| 2026-05-01 09:18 | 49.90395 | 18.85963 | 20045 ft | 331 kts | 65° |
| 2026-05-01 09:19 | 49.91066 | 18.93021 | 19746 ft | 326 kts | 88° |
| 2026-05-01 09:19 | 49.90875 | 18.96424 | 19598 ft | 308 kts | 89° |
| 2026-05-01 09:19 | 49.90671 | 18.99639 | 19465 ft | 290 kts | 88° |
| 2026-05-01 09:20 | 49.90312 | 19.05613 | 19039 ft | 270 kts | 88° |
| 2026-05-01 09:20 | 49.89980 | 19.11481 | 18429 ft | 285 kts | 88° |
| 2026-05-01 09:21 | 49.89621 | 19.17749 | 17704 ft | 288 kts | 89° |
| 2026-05-01 09:21 | 49.89439 | 19.20807 | 17351 ft | 280 kts | 88° |
| 2026-05-01 09:21 | 49.89104 | 19.26677 | 16687 ft | 266 kts | 84° |
| 2026-05-01 09:22 | 49.90058 | 19.31920 | 16077 ft | 257 kts | 62° |
| 2026-05-01 09:22 | 49.91600 | 19.37280 | 15387 ft | 274 kts | 63° |
| 2026-05-01 09:23 | 49.92355 | 19.39948 | 15031 ft | 266 kts | 63° |
| 2026-05-01 09:23 | 49.93784 | 19.45058 | 14376 ft | 254 kts | 63° |
| 2026-05-01 09:24 | 49.95076 | 19.50137 | 13785 ft | 255 kts | 71° |
| 2026-05-01 09:24 | 49.95454 | 19.52905 | 13506 ft | 270 kts | 74° |
| 2026-05-01 09:24 | 49.96185 | 19.58692 | 12823 ft | 268 kts | 73° |
| 2026-05-01 09:25 | 49.96913 | 19.64223 | 12162 ft | 254 kts | 73° |
| 2026-05-01 09:25 | 49.97634 | 19.69561 | 11547 ft | 253 kts | 73° |
| 2026-05-01 09:26 | 49.98005 | 19.72286 | 11240 ft | 265 kts | 73° |
| 2026-05-01 09:26 | 49.98778 | 19.77991 | 10557 ft | 267 kts | 73° |
| 2026-05-01 09:26 | 49.99145 | 19.80732 | 10417 ft | 252 kts | 73° |
| 2026-05-01 09:27 | 49.99847 | 19.85928 | 9910 ft | 245 kts | 73° |
| 2026-05-01 09:27 | 50.00202 | 19.88535 | 9619 ft | 250 kts | 73° |
| 2026-05-01 09:27 | 50.00572 | 19.91249 | 9372 ft | 261 kts | 74° |
| 2026-05-01 09:28 | 50.00947 | 19.94020 | 9212 ft | 259 kts | 74° |
| 2026-05-01 09:28 | 50.01304 | 19.96688 | 9078 ft | 245 kts | 74° |
| 2026-05-01 09:28 | 50.01642 | 19.99221 | 8932 ft | 233 kts | 74° |
| 2026-05-01 09:28 | 50.01968 | 20.01622 | 8689 ft | 227 kts | 73° |
| 2026-05-01 09:29 | 50.02611 | 20.06351 | 8250 ft | 224 kts | 74° |
| 2026-05-01 09:29 | 50.02938 | 20.08765 | 8026 ft | 232 kts | 74° |
| 2026-05-01 09:30 | 50.03627 | 20.13846 | 7264 ft | 249 kts | 75° |
| 2026-05-01 09:30 | 50.03981 | 20.16464 | 6899 ft | 246 kts | 75° |
| 2026-05-01 09:30 | 50.04820 | 20.21453 | 6322 ft | 228 kts | 54° |
| 2026-05-01 09:31 | 50.05508 | 20.22636 | 6178 ft | 218 kts | 33° |
| 2026-05-01 09:31 | 50.06847 | 20.23558 | 5960 ft | 207 kts | 9° |
| 2026-05-01 09:31 | 50.09693 | 20.23176 | 5528 ft | 212 kts | 348° |
| 2026-05-01 09:32 | 50.11164 | 20.22633 | 5283 ft | 222 kts | 339° |
| 2026-05-01 09:32 | 50.13064 | 20.19092 | 4825 ft | 221 kts | 283° |
| 2026-05-01 09:32 | 50.13056 | 20.16716 | 4614 ft | 218 kts | 263° |
| 2026-05-01 09:33 | 50.12804 | 20.14427 | 4415 ft | 211 kts | 261° |
| 2026-05-01 09:33 | 50.12515 | 20.12244 | 4224 ft | 206 kts | 260° |
| 2026-05-01 09:33 | 50.11903 | 20.07916 | 3988 ft | 203 kts | 259° |
| 2026-05-01 09:34 | 50.11600 | 20.05778 | 3967 ft | 202 kts | 259° |
| 2026-05-01 09:34 | 50.11294 | 20.03609 | 3792 ft | 208 kts | 259° |
| 2026-05-01 09:34 | 50.10674 | 19.99219 | 3258 ft | 201 kts | 259° |
| 2026-05-01 09:35 | 50.10379 | 19.97127 | 3000 ft | 194 kts | 259° |
| 2026-05-01 09:35 | 50.09844 | 19.93324 | 2505 ft | 166 kts | 258° |
| 2026-05-01 09:35 | 50.09611 | 19.91668 | 2301 ft | 149 kts | 257° |
| 2026-05-01 09:36 | 50.09399 | 19.90145 | 2089 ft | 140 kts | 257° |
| 2026-05-01 09:36 | 50.09189 | 19.88641 | 1917 ft | 144 kts | 256° |
| 2026-05-01 09:36 | 50.08979 | 19.87126 | 1730 ft | 141 kts | 256° |
| 2026-05-01 09:36 | 50.08771 | 19.85648 | 1539 ft | 138 kts | 256° |
| 2026-05-01 09:37 | 50.08564 | 19.84165 | 1363 ft | 142 kts | 256° |
| 2026-05-01 09:37 | 50.08156 | 19.81241 | 994 ft | 137 kts | 256° |
| 2026-05-01 09:37 | 50.07952 | 19.79771 | 812 ft | 137 kts | 256° |
| 2026-05-01 09:38 | 50.07648 | 19.77594 | 794 ft | 60 kts | 258° |
| 2026-05-01 09:38 | 50.07576 | 19.77088 | 800 ft | 42 kts | 257° |
| 2026-05-01 09:38 | 50.07468 | 19.76854 | 800 ft | 14 kts | 171° |
| 2026-05-01 09:39 | 50.07360 | 19.76890 | 799 ft | 0 kts | 168° |
| 2026-05-01 09:39 | 50.07358 | 19.76890 | 799 ft | 1 kts | 168° |
| 2026-05-01 09:39 | 50.07322 | 19.76917 | 799 ft | 11 kts | 136° |
| 2026-05-01 09:40 | 50.07325 | 19.77076 | 799 ft | 20 kts | 79° |
| 2026-05-01 09:40 | 50.07391 | 19.77550 | 799 ft | 21 kts | 77° |
| 2026-05-01 09:40 | 50.07422 | 19.77772 | 799 ft | 21 kts | 78° |
| 2026-05-01 09:41 | 50.07452 | 19.77988 | 799 ft | 20 kts | 78° |
| 2026-05-01 09:41 | 50.07509 | 19.78397 | 799 ft | 19 kts | 78° |
| 2026-05-01 09:41 | 50.07537 | 19.78596 | 799 ft | 18 kts | 78° |
| 2026-05-01 09:42 | 50.07563 | 19.78782 | 799 ft | 18 kts | 78° |
| 2026-05-01 09:42 | 50.07588 | 19.78966 | 799 ft | 17 kts | 78° |
| 2026-05-01 09:42 | 50.07636 | 19.79312 | 799 ft | 16 kts | 78° |
| 2026-05-01 09:43 | 50.07667 | 19.79632 | 799 ft | 15 kts | 107° |
| 2026-05-01 09:43 | 50.07608 | 19.79804 | 799 ft | 22 kts | 120° |
| 2026-05-01 09:43 | 50.07514 | 19.79982 | 799 ft | 18 kts | 96° |
| 2026-05-01 09:44 | 50.07597 | 19.80155 | 799 ft | 0 kts | 348° |